createdAt,value
2018-05-13T00:01:42.104Z,70.30
2018-05-13T00:04:10.496Z,70.30
2018-05-13T00:06:39.145Z,70.30
2018-05-13T00:09:07.561Z,70.40
2018-05-13T00:11:35.948Z,70.40
2018-05-13T00:14:05.240Z,70.50
2018-05-13T00:16:33.628Z,70.50
2018-05-13T00:19:02.796Z,70.80
2018-05-13T00:21:31.179Z,70.80
2018-05-13T00:23:59.836Z,70.50
2018-05-13T00:26:28.218Z,70.60
2018-05-13T00:28:56.620Z,70.40
2018-05-13T00:31:25.027Z,70.40
2018-05-13T00:33:54.181Z,71.00
2018-05-13T00:36:22.580Z,70.90
2018-05-13T00:38:50.968Z,70.40
2018-05-13T00:41:20.334Z,71.20
2018-05-13T00:43:48.725Z,71.20
2018-05-13T00:46:17.116Z,71.00
2018-05-13T00:48:45.526Z,71.20
2018-05-13T00:51:14.690Z,72.10
2018-05-13T00:53:43.113Z,72.10
2018-05-13T00:56:11.497Z,72.50
2018-05-13T00:58:40.073Z,72.20
2018-05-13T01:01:08.456Z,72.20
2018-05-13T01:03:36.950Z,72.30
2018-05-13T01:06:05.362Z,72.80
2018-05-13T01:08:33.748Z,73.10
2018-05-13T01:11:02.160Z,72.80
2018-05-13T01:13:31.339Z,73.00
2018-05-13T01:15:59.876Z,73.00
2018-05-13T01:18:28.256Z,73.30
2018-05-13T01:20:56.642Z,73.20
2018-05-13T01:23:25.043Z,73.60
2018-05-13T01:25:53.424Z,74.00
2018-05-13T01:28:22.602Z,74.40
2018-05-13T01:30:50.981Z,74.40
2018-05-13T01:33:19.400Z,74.40
2018-05-13T01:35:48.541Z,74.80
2018-05-13T01:38:16.921Z,74.70
2018-05-13T01:40:45.325Z,75.00
2018-05-13T01:43:13.704Z,75.60
2018-05-13T01:45:42.110Z,75.40
2018-05-13T01:48:11.275Z,75.60
2018-05-13T01:50:39.719Z,75.60
2018-05-13T01:53:08.100Z,75.80
2018-05-13T01:55:36.478Z,75.90
2018-05-13T01:58:04.917Z,76.00
2018-05-13T02:00:33.296Z,76.00
2018-05-13T02:03:01.703Z,76.20
2018-05-13T02:05:30.085Z,76.10
2018-05-13T02:07:58.694Z,76.50
2018-05-13T02:10:27.072Z,76.40
2018-05-13T02:12:55.449Z,76.40
2018-05-13T02:15:23.848Z,76.50
2018-05-13T02:17:52.230Z,76.50
2018-05-13T02:20:20.630Z,76.70
2018-05-13T02:22:49.772Z,76.40
2018-05-13T02:25:18.196Z,77.00
2018-05-13T02:27:46.573Z,76.80
2018-05-13T02:30:14.960Z,76.90
2018-05-13T02:32:44.143Z,77.40
2018-05-13T02:35:12.518Z,77.40
2018-05-13T02:37:40.925Z,77.60
2018-05-13T02:40:10.062Z,77.50
2018-05-13T02:42:38.464Z,77.50
2018-05-13T02:45:06.853Z,77.60
2018-05-13T02:47:35.256Z,77.90
2018-05-13T02:50:04.431Z,77.90
2018-05-13T02:52:32.814Z,77.90
2018-05-13T02:55:01.220Z,77.60
2018-05-13T02:57:29.613Z,77.90
2018-05-13T02:59:58.024Z,78.20
2018-05-13T03:02:26.409Z,78.40
2018-05-13T03:04:54.837Z,78.40
2018-05-13T03:07:23.992Z,78.90
2018-05-13T03:09:52.365Z,78.80
2018-05-13T03:12:20.773Z,79.00
2018-05-13T03:14:49.149Z,79.10
2018-05-13T03:17:18.308Z,78.90
2018-05-13T03:19:46.685Z,78.80
2018-05-13T03:22:15.364Z,78.80
2018-05-13T03:24:43.741Z,78.20
2018-05-13T03:27:12.117Z,78.60
2018-05-13T03:29:40.516Z,78.30
2018-05-13T03:32:08.891Z,78.00
2018-05-13T03:34:37.289Z,78.10
2018-05-13T03:37:05.664Z,78.20
2018-05-13T03:39:34.196Z,77.90
2018-05-13T03:42:02.573Z,78.00
2018-05-13T03:44:30.957Z,78.10
2018-05-13T03:46:59.359Z,78.40
2018-05-13T03:49:27.744Z,78.30
2018-05-13T03:51:56.145Z,78.30
2018-05-13T03:54:24.524Z,78.40
2018-05-13T03:56:53.293Z,78.40
2018-05-13T03:59:21.670Z,78.70
2018-05-13T04:01:50.049Z,79.10
2018-05-13T04:04:18.454Z,79.30
2018-05-13T04:06:46.829Z,78.90
2018-05-13T04:09:33.756Z,79.60
2018-05-13T04:12:21.021Z,79.70
2018-05-13T04:15:07.264Z,79.30
2018-05-13T04:17:35.649Z,79.10
2018-05-13T04:20:04.053Z,79.30
2018-05-13T04:22:32.424Z,79.50
2018-05-13T04:25:01.874Z,79.10
2018-05-13T04:27:30.332Z,79.10
2018-05-13T04:29:58.709Z,79.00
2018-05-13T04:32:27.110Z,79.40
2018-05-13T04:34:55.490Z,79.20
2018-05-13T04:37:23.889Z,79.30
2018-05-13T04:39:52.272Z,80.10
2018-05-13T04:42:20.684Z,80.10
2018-05-13T04:44:49.111Z,79.60
2018-05-13T04:47:17.491Z,80.00
2018-05-13T04:49:45.887Z,80.10
2018-05-13T04:52:14.264Z,79.90
2018-05-13T04:54:42.677Z,79.60
2018-05-13T04:57:11.815Z,79.20
2018-05-13T04:59:40.389Z,79.10
2018-05-13T05:02:08.765Z,78.60
2018-05-13T05:04:37.136Z,78.60
2018-05-13T05:07:05.540Z,78.60
2018-05-13T05:09:33.925Z,78.90
2018-05-13T05:12:02.331Z,79.00
2018-05-13T05:14:31.473Z,78.70
2018-05-13T05:16:59.897Z,78.70
2018-05-13T05:19:28.264Z,78.60
2018-05-13T05:21:56.647Z,78.40
2018-05-13T05:24:25.048Z,78.20
2018-05-13T05:26:54.189Z,78.20
2018-05-13T05:29:22.933Z,78.30
2018-05-13T05:31:52.082Z,78.30
2018-05-13T05:34:20.457Z,78.30
2018-05-13T05:36:48.861Z,78.00
2018-05-13T05:39:17.250Z,77.70
2018-05-13T05:41:46.635Z,77.50
2018-05-13T05:44:15.021Z,76.90
2018-05-13T05:46:43.397Z,76.70
2018-05-13T05:49:11.797Z,76.30
2018-05-13T05:51:40.957Z,76.00
2018-05-13T05:54:09.733Z,76.00
2018-05-13T05:56:38.113Z,75.80
2018-05-13T05:59:06.494Z,75.80
2018-05-13T06:01:34.898Z,75.20
2018-05-13T06:04:03.284Z,74.70
2018-05-13T06:06:32.489Z,74.30
2018-05-13T06:09:01.647Z,74.40
2018-05-13T06:11:30.124Z,74.30
2018-05-13T06:13:58.537Z,73.80
2018-05-13T06:16:26.916Z,72.90
2018-05-13T06:21:30.726Z,72.50
2018-05-13T06:23:59.588Z,72.30
2018-05-13T06:26:27.972Z,72.30
2018-05-13T06:28:56.361Z,72.40
2018-05-13T06:31:24.764Z,72.00
2018-05-13T06:33:53.142Z,71.70
2018-05-13T06:36:22.313Z,70.90
2018-05-13T06:38:50.693Z,70.50
2018-05-13T06:41:19.119Z,71.20
2018-05-13T06:43:48.263Z,70.20
2018-05-13T06:46:16.644Z,70.20
2018-05-13T06:48:45.056Z,68.60
2018-05-13T06:51:14.264Z,67.60
2018-05-13T06:53:42.640Z,67.60
2018-05-13T06:56:11.785Z,64.80
2018-05-13T06:58:40.461Z,64.80
2018-05-13T07:01:08.836Z,63.80
2018-05-13T07:03:37.223Z,64.10
2018-05-13T07:06:05.641Z,64.00
2018-05-13T07:08:34.023Z,61.70
2018-05-13T07:11:02.441Z,62.20
2018-05-13T07:13:30.820Z,62.40
2018-05-13T07:15:59.325Z,61.40
2018-05-13T07:18:27.701Z,60.70
2018-05-13T07:20:56.086Z,61.00
2018-05-13T07:23:24.489Z,60.40
2018-05-13T07:25:52.864Z,59.30
2018-05-13T07:28:21.274Z,58.70
2018-05-13T07:30:50.416Z,57.30
2018-05-13T07:33:18.844Z,57.20
2018-05-13T07:35:47.989Z,57.40
2018-05-13T07:38:16.373Z,57.40
2018-05-13T07:40:44.812Z,57.30
2018-05-13T07:43:13.192Z,56.70
2018-05-13T07:45:41.592Z,56.20
2018-05-13T07:48:09.972Z,56.10
2018-05-13T07:50:38.673Z,55.00
2018-05-13T07:53:07.051Z,54.80
2018-05-13T07:55:35.435Z,54.30
2018-05-13T07:58:03.847Z,54.70
2018-05-13T08:00:32.229Z,53.40
2018-05-13T08:03:01.399Z,53.40
2018-05-13T08:05:29.785Z,53.30
2018-05-13T08:07:58.384Z,52.30
2018-05-13T08:10:27.532Z,51.80
2018-05-13T08:12:55.907Z,51.70
2018-05-13T08:15:24.311Z,50.50
2018-05-13T08:17:52.690Z,50.30
2018-05-13T08:20:21.187Z,50.10
2018-05-13T08:22:50.253Z,49.00
2018-05-13T08:25:18.930Z,48.90
2018-05-13T08:27:47.299Z,46.70
2018-05-13T08:30:15.678Z,47.40
2018-05-13T08:32:44.080Z,46.60
2018-05-13T08:35:12.452Z,46.60
2018-05-13T08:37:40.930Z,47.00
2018-05-13T08:40:09.313Z,46.60
2018-05-13T08:42:37.718Z,45.70
2018-05-13T08:45:06.112Z,45.40
2018-05-13T08:47:35.246Z,44.80
2018-05-13T08:50:03.640Z,44.80
2018-05-13T08:52:32.014Z,43.80
2018-05-13T08:55:00.405Z,44.00
2018-05-13T08:57:28.780Z,43.00
2018-05-13T08:59:57.564Z,42.30
2018-05-13T09:02:26.038Z,42.20
2018-05-13T09:04:54.432Z,41.60
2018-05-13T09:07:22.829Z,40.70
2018-05-13T09:09:51.288Z,40.80
2018-05-13T09:12:19.686Z,39.70
2018-05-13T09:14:48.064Z,40.00
2018-05-13T09:17:17.948Z,38.60
2018-05-13T09:19:46.359Z,38.50
2018-05-13T09:22:14.735Z,39.80
2018-05-13T09:24:43.139Z,37.00
2018-05-13T09:27:12.277Z,36.70
2018-05-13T09:29:40.913Z,36.70
2018-05-13T09:32:10.053Z,35.90
2018-05-13T09:34:38.435Z,35.90
2018-05-13T09:37:06.826Z,35.70
2018-05-13T09:39:35.238Z,35.30
2018-05-13T09:42:03.629Z,33.80
2018-05-13T09:44:32.773Z,34.00
2018-05-13T09:47:01.353Z,33.90
2018-05-13T09:49:29.728Z,33.70
2018-05-13T09:51:58.101Z,32.50
2018-05-13T09:54:26.495Z,32.50
2018-05-13T09:56:54.873Z,32.20
2018-05-13T09:59:23.265Z,31.60
2018-05-13T10:01:51.697Z,31.70
2018-05-13T10:04:20.312Z,32.70
2018-05-13T10:06:48.685Z,32.50
2018-05-13T10:09:17.054Z,31.90
2018-05-13T10:11:45.450Z,31.80
2018-05-13T10:14:13.823Z,29.80
2018-05-13T10:16:42.220Z,30.00
2018-05-13T10:19:10.589Z,30.50
2018-05-13T10:21:39.244Z,29.70
2018-05-13T10:24:07.616Z,29.80
2018-05-13T10:26:35.985Z,29.30
2018-05-13T10:29:05.160Z,27.60
2018-05-13T10:31:34.305Z,27.20
2018-05-13T10:34:02.721Z,27.20
2018-05-13T10:36:31.188Z,27.80
2018-05-13T10:39:00.312Z,28.40
2018-05-13T10:41:29.457Z,27.70
2018-05-13T10:43:57.830Z,27.30
2018-05-13T10:46:26.242Z,26.60
2018-05-13T10:48:54.608Z,26.70
2018-05-13T10:51:23.008Z,27.30
2018-05-13T10:53:51.436Z,26.80
2018-05-13T10:56:19.864Z,26.40
2018-05-13T10:58:48.242Z,26.70
2018-05-13T11:01:16.617Z,26.00
2018-05-13T11:03:45.009Z,25.60
2018-05-13T11:06:14.145Z,25.40
2018-05-13T11:08:42.545Z,25.50
2018-05-13T11:11:10.916Z,25.70
2018-05-13T11:13:39.609Z,24.80
2018-05-13T11:16:07.974Z,24.80
2018-05-13T11:18:36.357Z,24.70
2018-05-13T11:21:04.762Z,25.20
2018-05-13T11:23:33.128Z,25.40
2018-05-13T11:26:01.558Z,26.30
2018-05-13T11:28:30.688Z,26.30
2018-05-13T11:30:59.131Z,26.20
2018-05-13T11:33:28.266Z,25.70
2018-05-13T11:35:56.632Z,25.70
2018-05-13T11:38:25.038Z,26.00
2018-05-13T11:40:53.407Z,26.00
2018-05-13T11:43:21.805Z,26.30
2018-05-13T11:45:50.174Z,25.10
2018-05-13T11:48:18.825Z,26.00
2018-05-13T11:50:47.147Z,26.20
2018-05-13T11:53:15.515Z,24.80
2018-05-13T11:55:43.904Z,25.00
2018-05-13T11:58:12.285Z,25.40
2018-05-13T12:00:40.686Z,25.70
2018-05-13T12:03:09.828Z,26.00
2018-05-13T12:05:38.416Z,25.90
2018-05-13T12:08:06.781Z,25.60
2018-05-13T12:10:35.152Z,24.40
2018-05-13T12:13:03.548Z,25.30
2018-05-13T12:15:31.912Z,23.50
2018-05-13T12:18:00.318Z,23.70
2018-05-13T12:20:28.745Z,23.50
2018-05-13T12:22:58.083Z,23.30
2018-05-13T12:25:26.473Z,23.30
2018-05-13T12:27:54.844Z,23.40
2018-05-13T12:30:23.236Z,23.30
2018-05-13T12:32:51.608Z,23.20
2018-05-13T12:35:20.000Z,23.50
2018-05-13T12:37:48.379Z,23.80
2018-05-13T12:40:17.040Z,23.80
2018-05-13T12:42:45.416Z,23.90
2018-05-13T12:45:13.789Z,23.60
2018-05-13T12:47:42.189Z,23.00
2018-05-13T12:50:10.625Z,24.30
2018-05-13T12:52:38.985Z,25.50
2018-05-13T12:55:07.370Z,26.10
2018-05-13T12:57:36.716Z,25.70
2018-05-13T13:00:05.104Z,25.60
2018-05-13T13:02:33.472Z,25.60
2018-05-13T13:05:01.864Z,24.70
2018-05-13T13:07:30.236Z,24.40
2018-05-13T13:09:58.629Z,22.90
2018-05-13T13:12:27.000Z,23.00
2018-05-13T13:14:55.460Z,23.30
2018-05-13T13:17:23.836Z,22.60
2018-05-13T13:19:52.207Z,22.50
2018-05-13T13:22:20.613Z,22.20
2018-05-13T13:24:48.981Z,22.90
2018-05-13T13:27:17.361Z,22.60
2018-05-13T13:29:45.736Z,22.70
2018-05-13T13:32:14.536Z,22.70
2018-05-13T13:34:42.921Z,21.70
2018-05-13T13:37:11.296Z,21.10
2018-05-13T13:39:39.686Z,21.20
2018-05-13T13:42:08.066Z,20.90
2018-05-13T13:44:36.531Z,21.10
2018-05-13T13:47:04.905Z,20.80
2018-05-13T13:49:33.309Z,21.40
2018-05-13T13:52:01.680Z,21.60
2018-05-13T13:54:30.056Z,21.50
2018-05-13T13:56:58.452Z,22.40
2018-05-13T13:59:27.005Z,21.70
2018-05-13T14:01:55.501Z,22.20
2018-05-13T14:04:23.828Z,22.50
2018-05-13T14:06:52.440Z,22.80
2018-05-13T14:09:20.864Z,23.50
2018-05-13T14:11:49.241Z,25.10
2018-05-13T14:14:17.629Z,26.30
2018-05-13T14:16:46.766Z,27.10
2018-05-13T14:19:15.161Z,27.10
2018-05-13T14:21:43.538Z,27.60
2018-05-13T14:24:12.135Z,28.00
2018-05-13T14:26:40.505Z,28.60
2018-05-13T14:29:08.941Z,29.10
2018-05-13T14:31:37.306Z,28.30
2018-05-13T14:34:06.452Z,28.90
2018-05-13T14:36:34.844Z,28.80
2018-05-13T14:39:11.822Z,29.00
2018-05-13T14:41:32.598Z,29.60
2018-05-13T14:44:00.975Z,29.60
2018-05-13T14:46:29.364Z,29.50
2018-05-13T14:48:57.797Z,28.60
2018-05-13T14:51:26.949Z,29.40
2018-05-13T14:53:55.359Z,29.40
2018-05-13T14:56:23.733Z,28.90
2018-05-13T14:58:52.179Z,28.70
2018-05-13T15:01:20.553Z,29.40
2018-05-13T15:03:48.929Z,29.40
2018-05-13T15:06:17.299Z,30.10
2018-05-13T15:08:45.694Z,31.00
2018-05-13T15:11:14.066Z,31.50
2018-05-13T15:13:42.475Z,31.70
2018-05-13T15:16:11.047Z,31.00
2018-05-13T15:18:39.416Z,30.40
2018-05-13T15:21:07.827Z,31.90
2018-05-13T15:23:36.969Z,33.00
2018-05-13T15:26:05.372Z,33.00
2018-05-13T15:28:33.742Z,33.40
2018-05-13T15:31:02.355Z,33.00
2018-05-13T15:33:31.517Z,33.60
2018-05-13T15:35:59.889Z,33.60
2018-05-13T15:38:28.281Z,34.10
2018-05-13T15:40:56.657Z,34.30
2018-05-13T15:43:25.157Z,34.70
2018-05-13T15:45:53.449Z,41.40
2018-05-13T15:48:22.284Z,44.00
2018-05-13T15:50:50.835Z,46.30
2018-05-13T15:53:20.056Z,49.00
2018-05-13T15:55:48.450Z,48.90
2018-05-13T15:58:16.824Z,50.80
2018-05-13T16:00:45.221Z,51.50
2018-05-13T16:03:13.600Z,52.00
2018-05-13T16:05:42.022Z,53.20
2018-05-13T16:08:11.293Z,54.90
2018-05-13T16:10:39.700Z,54.90
2018-05-13T16:13:08.876Z,56.60
2018-05-13T16:15:37.273Z,56.40
2018-05-13T16:18:06.531Z,57.60
2018-05-13T16:20:34.996Z,57.50
2018-05-13T16:23:03.448Z,57.70
2018-05-13T16:25:31.846Z,58.00
2018-05-13T16:28:00.450Z,57.90
2018-05-13T16:30:28.836Z,58.40
2018-05-13T16:32:57.313Z,59.50
2018-05-13T16:35:26.545Z,60.30
2018-05-13T16:37:54.924Z,61.10
2018-05-13T16:40:23.333Z,63.60
2018-05-13T16:42:51.923Z,65.00
2018-05-13T16:45:20.745Z,64.80
2018-05-13T16:47:49.139Z,67.40
2018-05-13T16:50:17.516Z,67.40
2018-05-13T16:52:45.933Z,68.50
2018-05-13T16:55:14.463Z,70.20
2018-05-13T16:57:43.673Z,70.70
2018-05-13T17:00:12.046Z,70.60
2018-05-13T17:02:40.708Z,70.50
2018-05-13T17:05:09.090Z,70.80
2018-05-13T17:07:37.542Z,71.60
2018-05-13T17:10:08.224Z,70.90
2018-05-13T17:12:36.994Z,71.30
2018-05-13T17:15:06.829Z,71.90
2018-05-13T17:17:35.356Z,71.70
2018-05-13T17:20:04.301Z,73.00
2018-05-13T17:22:33.172Z,72.80
2018-05-13T17:25:02.368Z,73.00
2018-05-13T17:27:31.056Z,72.70
2018-05-13T17:30:01.226Z,73.00
2018-05-13T17:32:34.687Z,70.60
2018-05-13T17:35:04.146Z,70.60
2018-05-13T17:37:32.585Z,73.80
2018-05-13T17:40:00.967Z,72.00
2018-05-13T17:42:29.459Z,71.50
2018-05-13T17:44:58.660Z,73.20
2018-05-13T17:47:27.829Z,73.50
2018-05-13T17:49:56.299Z,73.50
2018-05-13T17:52:25.719Z,74.20
2018-05-13T17:54:54.093Z,74.10
2018-05-13T17:57:22.576Z,74.90
2018-05-13T17:59:51.836Z,74.80
2018-05-13T18:02:20.572Z,74.80
2018-05-13T18:04:49.634Z,74.20
2018-05-13T18:07:18.018Z,74.50
2018-05-13T18:09:46.688Z,75.00
2018-05-13T18:12:15.077Z,75.00
2018-05-13T18:14:44.159Z,75.00
2018-05-13T18:17:12.649Z,75.00
2018-05-13T18:19:41.837Z,75.80
2018-05-13T18:22:10.301Z,76.10
2018-05-13T18:24:38.796Z,78.70
2018-05-13T18:27:07.365Z,78.60
2018-05-13T18:29:36.100Z,76.80
2018-05-13T18:32:05.376Z,74.70
2018-05-13T18:34:34.108Z,74.60
2018-05-13T18:37:02.860Z,75.30
2018-05-13T18:39:32.107Z,77.90
2018-05-13T18:44:36.134Z,90.30
2018-05-13T18:47:05.272Z,92.60
2018-05-13T18:49:34.066Z,92.60
2018-05-13T18:52:04.529Z,93.70
2018-05-13T18:54:33.388Z,94.50
2018-05-13T18:57:01.905Z,95.20
2018-05-13T18:59:31.417Z,95.40
2018-05-13T19:02:01.857Z,95.40
2018-05-13T19:04:30.595Z,95.40
2018-05-13T19:07:00.397Z,94.30
2018-05-13T19:09:30.404Z,94.40
2018-05-13T19:11:59.647Z,94.40
2018-05-13T19:14:29.005Z,94.40
2018-05-13T19:16:58.763Z,93.60
2018-05-13T19:19:28.633Z,93.50
2018-05-13T19:21:58.318Z,93.40
2018-05-13T19:24:28.668Z,93.30
2018-05-13T19:26:58.893Z,93.60
2018-05-13T19:29:29.874Z,93.50
2018-05-13T19:31:58.759Z,93.40
2018-05-13T19:34:27.603Z,93.20
2018-05-13T19:36:56.543Z,93.20
2018-05-13T19:39:25.449Z,93.20
2018-05-13T19:41:54.503Z,93.30
2018-05-13T19:44:23.018Z,92.70
2018-05-13T19:46:52.155Z,92.50
2018-05-13T19:49:21.204Z,92.10
2018-05-13T19:51:52.189Z,92.10
2018-05-13T19:54:21.598Z,91.90
2018-05-13T19:56:51.900Z,92.10
2018-05-13T19:59:22.866Z,92.20
2018-05-13T20:01:52.395Z,92.20
2018-05-13T20:04:22.325Z,92.00
2018-05-13T20:06:52.868Z,91.80
2018-05-13T20:09:22.755Z,91.80
2018-05-13T20:11:52.118Z,91.60
2018-05-13T20:14:20.587Z,91.50
2018-05-13T20:16:49.046Z,91.30
2018-05-13T20:19:17.534Z,91.30
2018-05-13T20:21:46.324Z,91.30
2018-05-13T20:24:14.775Z,91.20
2018-05-13T20:26:43.213Z,91.20
2018-05-13T20:29:11.790Z,91.60
2018-05-13T20:31:40.696Z,91.70
2018-05-13T20:34:09.477Z,91.30
2018-05-13T20:36:38.112Z,91.30
2018-05-13T20:39:07.044Z,91.70
2018-05-13T20:41:35.532Z,91.70
2018-05-13T20:44:03.927Z,91.00
2018-05-13T20:46:32.361Z,90.80
2018-05-13T20:49:00.740Z,90.90
2018-05-13T20:51:29.208Z,90.80
2018-05-13T20:53:57.668Z,90.70
2018-05-13T20:56:26.804Z,90.20
2018-05-13T20:58:55.205Z,90.10
2018-05-13T21:01:23.584Z,90.10
2018-05-13T21:03:52.000Z,90.10
2018-05-13T21:06:20.385Z,90.30
2018-05-13T21:08:49.568Z,90.70
2018-05-13T21:11:18.734Z,89.90
2018-05-13T21:13:47.116Z,89.80
2018-05-13T21:16:15.522Z,89.50
2018-05-13T21:18:44.664Z,90.70
2018-05-13T21:21:13.161Z,90.70
2018-05-13T21:23:41.668Z,91.10
2018-05-13T21:26:10.634Z,90.40
2018-05-13T21:28:39.028Z,90.00
2018-05-13T21:31:07.404Z,90.00
2018-05-13T21:33:36.640Z,90.30
2018-05-13T21:36:05.784Z,90.40
2018-05-13T21:38:34.545Z,90.70
2018-05-13T21:41:04.229Z,90.20
2018-05-13T21:43:34.226Z,89.20
2018-05-13T21:46:03.325Z,89.80
2018-05-13T21:48:32.444Z,90.60
2018-05-13T21:51:02.168Z,90.40
2018-05-13T21:53:30.615Z,90.50
2018-05-13T21:55:59.918Z,90.90
2018-05-13T21:58:28.329Z,90.60
2018-05-13T22:00:56.889Z,90.60
2018-05-13T22:03:26.042Z,91.30
2018-05-13T22:05:54.436Z,91.30
2018-05-13T22:08:22.872Z,90.90
2018-05-13T22:10:51.253Z,90.80
2018-05-13T22:13:19.805Z,90.70
2018-05-13T22:15:48.967Z,90.80
2018-05-13T22:18:17.397Z,90.80
2018-05-13T22:20:45.775Z,90.80
2018-05-13T22:23:14.296Z,90.80
2018-05-13T22:25:42.764Z,91.00
2018-05-13T22:28:11.863Z,90.80
2018-05-13T22:30:40.273Z,90.80
2018-05-13T22:33:10.161Z,90.40
2018-05-13T22:35:38.732Z,90.50
2018-05-13T22:38:07.117Z,90.40
2018-05-13T22:40:35.600Z,90.80
2018-05-13T22:43:04.570Z,90.70
2018-05-13T22:45:33.177Z,90.80
2018-05-13T22:48:01.579Z,90.60
2018-05-13T22:50:32.651Z,90.60
2018-05-13T22:53:02.205Z,90.70
2018-05-13T22:55:32.773Z,90.60
2018-05-13T22:58:01.988Z,90.50
2018-05-13T23:00:31.152Z,90.90
2018-05-13T23:02:59.529Z,90.90
2018-05-13T23:05:27.980Z,90.80
2018-05-13T23:07:56.330Z,90.80
2018-05-13T23:10:24.719Z,90.70
2018-05-13T23:12:53.094Z,90.90
2018-05-13T23:15:21.694Z,91.00
2018-05-13T23:17:50.073Z,91.00
2018-05-13T23:20:18.452Z,91.00
2018-05-13T23:22:46.854Z,91.30
2018-05-13T23:25:15.235Z,91.30
2018-05-13T23:27:43.644Z,91.30
2018-05-13T23:30:12.791Z,91.20
2018-05-13T23:32:41.530Z,91.20
2018-05-13T23:35:10.677Z,91.10
2018-05-13T23:37:39.056Z,91.10
2018-05-13T23:40:07.865Z,91.00
2018-05-13T23:42:36.245Z,90.90
2018-05-13T23:45:04.654Z,90.90
2018-05-13T23:47:33.043Z,90.80
2018-05-13T23:50:01.649Z,90.80
2018-05-13T23:52:30.025Z,90.60
2018-05-13T23:54:58.404Z,90.80
2018-05-13T23:57:26.806Z,90.70
2018-05-13T23:59:55.184Z,90.50
